Time;durP1;ratioP1;P1;durP2;ratioP2;P2;SDS_P1;SDS_P2;PMS_P1;PMS_P2;Temp;Humidity;BMP_temperature;BMP_pressure;BME280_temperature;BME280_humidity;BME280_pressure;Samples;Min_cycle;Max_cycle;Signal;HPM_P1;HPM_P2
2021/03/15 00:00:15;;;;;;;6.80;3.63;;;10.00;63.10;;;;;;2062513;28;20038;-60
2021/03/15 00:01:36;;;;;;;7.80;3.78;;;10.00;63.10;;;;;;2064224;28;20113;-59
2021/03/15 00:02:56;;;;;;;8.50;3.38;;;10.00;63.10;;;;;;2070458;28;20044;-59
2021/03/15 00:04:17;;;;;;;8.90;4.35;;;10.00;63.20;;;;;;2058326;28;20038;-59
2021/03/15 00:05:38;;;;;;;7.80;3.67;;;10.10;63.20;;;;;;2059851;28;20030;-59
2021/03/15 00:06:59;;;;;;;9.93;3.60;;;10.00;63.30;;;;;;2061965;28;20099;-60
2021/03/15 00:08:20;;;;;;;9.07;4.00;;;10.00;63.10;;;;;;2058504;28;20117;-60
2021/03/15 00:09:41;;;;;;;7.53;4.00;;;10.10;63.20;;;;;;2066096;28;20031;-60
2021/03/15 00:11:03;;;;;;;9.38;3.83;;;10.10;63.30;;;;;;2070832;28;20045;-60
2021/03/15 00:12:24;;;;;;;7.07;4.00;;;10.10;63.30;;;;;;2059828;28;20037;-60
2021/03/15 00:13:45;;;;;;;9.02;4.30;;;10.10;63.40;;;;;;2061448;28;20031;-60
2021/03/15 00:15:07;;;;;;;7.13;3.83;;;10.10;63.40;;;;;;2061509;28;20022;-59
2021/03/15 00:16:28;;;;;;;7.88;3.45;;;10.10;63.30;;;;;;2061040;28;20031;-60
2021/03/15 00:17:49;;;;;;;7.35;4.05;;;10.10;63.30;;;;;;2066258;28;20452;-59
2021/03/15 00:19:10;;;;;;;6.63;3.97;;;10.10;63.40;;;;;;2064041;28;20110;-59
2021/03/15 00:20:32;;;;;;;9.10;4.35;;;10.10;63.40;;;;;;2066847;28;20035;-59
2021/03/15 00:21:53;;;;;;;7.68;4.20;;;10.10;63.40;;;;;;2066249;28;20121;-58
2021/03/15 00:23:15;;;;;;;9.00;4.53;;;10.10;63.40;;;;;;2057552;28;20074;-58
2021/03/15 00:24:35;;;;;;;11.32;4.38;;;10.10;63.50;;;;;;2069489;28;20025;-60
2021/03/15 00:25:56;;;;;;;9.38;3.95;;;10.10;63.50;;;;;;2069478;28;20507;-59
2021/03/15 00:27:17;;;;;;;8.43;4.18;;;10.10;63.60;;;;;;2061376;28;20034;-59
2021/03/15 00:28:38;;;;;;;8.50;3.90;;;10.10;63.70;;;;;;2061908;28;20154;-59
2021/03/15 00:29:59;;;;;;;6.78;4.25;;;10.10;63.90;;;;;;2065003;28;20097;-59
2021/03/15 00:31:20;;;;;;;10.55;4.18;;;10.10;63.80;;;;;;2061667;28;20195;-59
2021/03/15 00:32:42;;;;;;;9.20;3.70;;;10.10;63.90;;;;;;2068090;28;20073;-59
2021/03/15 00:34:03;;;;;;;8.50;3.45;;;10.10;64.00;;;;;;2070066;28;20397;-60
2021/03/15 00:35:25;;;;;;;9.52;4.03;;;10.10;63.90;;;;;;2067982;28;20062;-60
2021/03/15 00:36:45;;;;;;;9.77;4.40;;;10.10;64.00;;;;;;2065504;28;20028;-59
2021/03/15 00:38:06;;;;;;;7.10;3.65;;;10.10;64.20;;;;;;2062945;28;20121;-60
2021/03/15 00:39:27;;;;;;;8.88;4.35;;;10.10;64.00;;;;;;2066016;28;20026;-60
2021/03/15 00:40:48;;;;;;;7.80;4.05;;;10.10;64.00;;;;;;2063436;28;20029;-60
2021/03/15 00:42:09;;;;;;;13.40;4.72;;;10.10;64.00;;;;;;2060840;28;20061;-60
2021/03/15 00:43:30;;;;;;;8.30;4.25;;;10.10;64.40;;;;;;2062926;28;20046;-59
2021/03/15 00:44:51;;;;;;;8.02;3.80;;;10.10;64.50;;;;;;2063994;28;20481;-60
2021/03/15 00:46:12;;;;;;;10.02;3.72;;;10.10;64.40;;;;;;2063262;28;20053;-60
2021/03/15 00:47:33;;;;;;;11.02;4.95;;;10.10;64.60;;;;;;2065277;28;20030;-61
2021/03/15 00:48:54;;;;;;;13.18;5.05;;;10.10;64.40;;;;;;2070254;28;20029;-59
2021/03/15 00:50:41;;;;;;;12.13;4.55;;;10.10;64.70;;;;;;2057755;28;20038;-59
2021/03/15 00:52:02;;;;;;;9.00;4.13;;;10.00;65.50;;;;;;2062326;28;20057;-59
2021/03/15 00:53:23;;;;;;;14.75;4.88;;;10.10;65.20;;;;;;2063996;28;20039;-58
2021/03/15 00:54:44;;;;;;;11.00;4.55;;;10.00;65.10;;;;;;2064616;28;20058;-58
2021/03/15 00:56:05;;;;;;;10.38;4.25;;;10.00;65.30;;;;;;2062941;28;20042;-58
2021/03/15 00:57:26;;;;;;;10.30;4.65;;;10.00;65.20;;;;;;2061245;28;20116;-58
2021/03/15 00:58:47;;;;;;;13.25;5.07;;;10.00;65.50;;;;;;2064932;28;20014;-58
2021/03/15 01:00:09;;;;;;;8.77;4.30;;;10.00;65.50;;;;;;2071142;28;20033;-57
2021/03/15 01:01:30;;;;;;;11.00;4.45;;;9.90;65.40;;;;;;2064679;28;20030;-60
2021/03/15 01:02:51;;;;;;;10.00;4.57;;;9.90;65.50;;;;;;2070517;28;20033;-58
2021/03/15 01:04:14;;;;;;;9.25;4.00;;;9.90;65.60;;;;;;2062277;28;20117;-60
2021/03/15 01:05:42;;;;;;;10.73;4.75;;;9.90;65.90;;;;;;2054938;28;20036;-59
2021/03/15 01:07:05;;;;;;;8.18;4.40;;;9.90;66.00;;;;;;2064817;28;20113;-59
2021/03/15 01:08:26;;;;;;;9.07;4.30;;;9.90;65.90;;;;;;2066395;28;20041;-59
2021/03/15 01:09:47;;;;;;;8.70;4.53;;;9.90;66.10;;;;;;2063042;28;20115;-59
2021/03/15 01:11:09;;;;;;;10.07;4.70;;;9.90;66.20;;;;;;2068265;28;20057;-59
2021/03/15 01:12:29;;;;;;;11.30;4.68;;;9.90;66.40;;;;;;2062074;28;20092;-59
2021/03/15 01:13:51;;;;;;;10.73;4.97;;;9.90;66.30;;;;;;2064778;28;20432;-59
2021/03/15 01:15:13;;;;;;;9.55;4.80;;;9.90;66.80;;;;;;2062547;28;20100;-58
2021/03/15 01:16:34;;;;;;;9.40;4.78;;;9.90;66.60;;;;;;2066324;28;20073;-58
2021/03/15 01:17:55;;;;;;;7.30;4.18;;;9.90;66.40;;;;;;2070125;28;20030;-60
2021/03/15 01:19:16;;;;;;;9.23;4.93;;;9.90;66.60;;;;;;2063653;28;20056;-58
2021/03/15 01:20:38;;;;;;;8.70;4.40;;;9.90;66.70;;;;;;2056430;28;20118;-59
2021/03/15 01:21:58;;;;;;;10.07;4.63;;;9.90;66.60;;;;;;2066071;28;20384;-60
2021/03/15 01:23:20;;;;;;;8.48;5.00;;;9.90;66.60;;;;;;2064945;28;20074;-60
2021/03/15 01:24:41;;;;;;;8.85;4.50;;;9.90;66.80;;;;;;2071033;28;20092;-60
2021/03/15 01:26:02;;;;;;;7.10;4.40;;;9.90;66.80;;;;;;2071363;28;20495;-59
2021/03/15 01:27:23;;;;;;;9.30;4.50;;;9.90;66.60;;;;;;2063838;28;20053;-59
2021/03/15 01:28:44;;;;;;;8.35;4.00;;;9.90;66.60;;;;;;2069314;28;20497;-59
2021/03/15 01:30:12;;;;;;;10.23;4.75;;;9.90;66.40;;;;;;2067305;28;20457;-60
2021/03/15 01:31:33;;;;;;;6.43;4.05;;;9.90;67.10;;;;;;2071170;28;20037;-60
2021/03/15 01:32:54;;;;;;;8.23;3.65;;;9.90;66.70;;;;;;2071911;28;20030;-60
2021/03/15 01:34:15;;;;;;;8.18;3.85;;;9.90;67.00;;;;;;2072182;28;20022;-59
2021/03/15 01:35:38;;;;;;;7.88;4.22;;;9.80;66.90;;;;;;2058415;28;20033;-60
2021/03/15 01:36:59;;;;;;;6.35;3.58;;;9.80;66.70;;;;;;2066933;28;20479;-60
2021/03/15 01:38:20;;;;;;;7.32;4.00;;;9.80;66.60;;;;;;2064530;28;20049;-60
2021/03/15 01:39:41;;;;;;;7.35;3.45;;;9.80;66.80;;;;;;2071463;28;20020;-60
2021/03/15 01:41:03;;;;;;;5.25;3.72;;;9.80;66.80;;;;;;2071274;28;20034;-59
2021/03/15 01:42:24;;;;;;;5.57;3.60;;;9.80;66.70;;;;;;2061817;28;20382;-59
2021/03/15 01:43:45;;;;;;;7.45;3.38;;;9.80;66.50;;;;;;2066427;28;20088;-59
2021/03/15 01:45:06;;;;;;;7.53;3.70;;;9.80;66.60;;;;;;2063368;28;20049;-60
2021/03/15 01:46:27;;;;;;;4.72;2.90;;;9.80;66.70;;;;;;2067447;28;20039;-59
2021/03/15 01:47:49;;;;;;;3.42;2.75;;;9.80;66.70;;;;;;2067859;28;20081;-59
2021/03/15 01:49:10;;;;;;;4.18;3.13;;;9.80;66.90;;;;;;2064527;28;20019;-59
2021/03/15 01:50:31;;;;;;;7.75;3.30;;;9.70;66.80;;;;;;2066856;28;20351;-59
2021/03/15 01:51:52;;;;;;;5.15;3.10;;;9.70;66.90;;;;;;2065090;28;20038;-59
2021/03/15 01:53:14;;;;;;;3.35;2.92;;;9.80;67.00;;;;;;2064520;28;20023;-59
2021/03/15 01:54:35;;;;;;;3.35;2.70;;;9.80;67.10;;;;;;2071173;28;20107;-59
2021/03/15 01:55:56;;;;;;;4.00;2.95;;;9.70;67.20;;;;;;2070492;28;20469;-59
2021/03/15 01:57:17;;;;;;;3.65;3.05;;;9.70;66.90;;;;;;2056054;28;20038;-59
2021/03/15 01:58:39;;;;;;;5.50;3.20;;;9.80;66.90;;;;;;2066261;28;20014;-59
2021/03/15 02:00:00;;;;;;;4.47;2.65;;;9.80;66.80;;;;;;2065285;28;20031;-59
2021/03/15 02:01:21;;;;;;;4.22;2.63;;;9.70;66.90;;;;;;2066390;28;20208;-59
2021/03/15 02:02:52;;;;;;;5.00;2.95;;;9.70;66.90;;;;;;2070447;28;20361;-59
2021/03/15 02:04:14;;;;;;;4.28;2.65;;;9.70;67.10;;;;;;2063996;28;20041;-58
2021/03/15 02:05:37;;;;;;;3.85;2.60;;;9.70;66.90;;;;;;2071085;28;20077;-58
2021/03/15 02:06:58;;;;;;;4.60;3.35;;;9.70;66.80;;;;;;2070363;28;20342;-58
2021/03/15 02:08:19;;;;;;;4.25;3.05;;;9.70;66.70;;;;;;2064366;28;20100;-58
2021/03/15 02:09:40;;;;;;;4.13;2.70;;;9.70;66.80;;;;;;2067246;28;20041;-59
2021/03/15 02:11:13;;;;;;;5.95;3.35;;;9.70;66.90;;;;;;2068494;28;20492;-58
2021/03/15 02:12:48;;;;;;;2.92;2.60;;;9.70;67.00;;;;;;2063403;28;20085;-59
2021/03/15 02:14:15;;;;;;;6.30;3.13;;;9.70;67.00;;;;;;2066135;28;20038;-58
2021/03/15 02:16:30;;;;;;;3.25;2.80;;;9.70;67.10;;;;;;2064701;28;20030;-59
2021/03/15 02:18:11;;;;;;;3.28;2.60;;;9.70;67.50;;;;;;2046563;29;20066;-59
2021/03/15 02:20:15;;;;;;;3.65;3.10;;;9.80;67.40;;;;;;2045000;28;20141;-60
2021/03/15 02:22:09;;;;;;;4.07;3.00;;;9.70;67.20;;;;;;2062394;28;20046;-60
2021/03/15 02:23:45;;;;;;;4.15;2.92;;;9.70;67.20;;;;;;2065850;28;20030;-60
2021/03/15 02:25:39;;;;;;;4.18;3.13;;;9.80;66.90;;;;;;2063790;28;20026;-60
2021/03/15 02:27:06;;;;;;;3.08;2.78;;;9.70;67.30;;;;;;2065599;28;20038;-60
2021/03/15 02:29:03;;;;;;;3.95;2.72;;;9.70;66.90;;;;;;2065990;28;20088;-60
2021/03/15 02:30:33;;;;;;;4.53;2.90;;;9.70;67.90;;;;;;2061470;28;20034;-59
2021/03/15 02:32:22;;;;;;;3.70;2.88;;;9.70;67.50;;;;;;2070075;28;20041;-60
2021/03/15 02:34:08;;;;;;;3.92;3.35;;;9.70;67.80;;;;;;2055031;28;20406;-59
2021/03/15 02:35:30;;;;;;;4.88;3.33;;;9.80;67.40;;;;;;2064703;28;20369;-59
2021/03/15 02:36:52;;;;;;;4.55;3.00;;;9.80;67.40;;;;;;2065467;28;20196;-59
2021/03/15 02:38:14;;;;;;;4.63;3.00;;;9.70;67.30;;;;;;2064640;28;20026;-59
2021/03/15 02:39:40;;;;;;;5.28;3.10;;;9.70;67.40;;;;;;2071243;28;20040;-58
2021/03/15 02:41:03;;;;;;;5.03;3.22;;;9.80;67.80;;;;;;2069535;28;20045;-59
2021/03/15 02:42:25;;;;;;;2.95;2.75;;;9.70;67.50;;;;;;2062686;28;20034;-60
2021/03/15 02:43:53;;;;;;;5.60;3.40;;;9.70;67.40;;;;;;2062956;28;20413;-59
2021/03/15 02:45:15;;;;;;;3.53;3.22;;;9.80;67.80;;;;;;2064189;28;20495;-59
2021/03/15 02:46:37;;;;;;;5.50;3.53;;;9.80;67.60;;;;;;2071437;28;20029;-59
2021/03/15 02:48:00;;;;;;;4.70;3.63;;;9.80;67.60;;;;;;2065059;28;20076;-59
2021/03/15 02:49:23;;;;;;;4.70;3.45;;;9.80;67.70;;;;;;2063069;28;20046;-59
2021/03/15 02:50:46;;;;;;;5.57;3.60;;;9.80;67.80;;;;;;2068105;28;20026;-59
2021/03/15 02:52:09;;;;;;;4.90;3.47;;;9.80;67.90;;;;;;2068353;28;20030;-59
2021/03/15 02:53:31;;;;;;;5.28;3.80;;;9.80;67.80;;;;;;2066648;28;20449;-59
2021/03/15 02:54:54;;;;;;;4.50;3.58;;;9.80;67.80;;;;;;2066821;28;20042;-59
2021/03/15 02:56:19;;;;;;;6.00;3.67;;;9.80;67.90;;;;;;2064664;28;20533;-59
2021/03/15 02:57:43;;;;;;;5.78;3.83;;;9.80;68.00;;;;;;2064012;28;20026;-59
2021/03/15 02:59:05;;;;;;;4.78;3.58;;;9.90;68.00;;;;;;2069163;28;20113;-59
2021/03/15 03:00:28;;;;;;;6.95;3.75;;;9.90;68.00;;;;;;2061871;28;20031;-59
2021/03/15 03:01:50;;;;;;;5.65;3.70;;;9.90;67.90;;;;;;2069011;28;20255;-59
2021/03/15 03:03:12;;;;;;;8.57;4.13;;;9.90;67.90;;;;;;2063775;28;20061;-59
2021/03/15 03:04:33;;;;;;;7.03;3.80;;;9.90;67.90;;;;;;2065788;28;20489;-59
2021/03/15 03:05:55;;;;;;;4.30;3.78;;;10.00;68.00;;;;;;2066026;28;20034;-59
2021/03/15 03:07:18;;;;;;;4.45;3.90;;;10.00;68.00;;;;;;2064553;28;20066;-59
2021/03/15 03:08:39;;;;;;;5.15;3.85;;;10.00;68.10;;;;;;2061064;28;20041;-59
2021/03/15 03:10:01;;;;;;;5.13;4.05;;;10.00;68.00;;;;;;2062388;28;20127;-59
2021/03/15 03:11:24;;;;;;;5.80;3.75;;;10.00;68.00;;;;;;2060548;28;20084;-59
2021/03/15 03:12:47;;;;;;;4.63;3.85;;;10.00;68.00;;;;;;2068356;28;20068;-60
2021/03/15 03:14:10;;;;;;;6.47;4.07;;;10.00;68.20;;;;;;2064686;28;20541;-60
2021/03/15 03:15:32;;;;;;;5.68;4.15;;;10.00;68.20;;;;;;2063606;28;20026;-59
2021/03/15 03:16:55;;;;;;;5.72;4.55;;;10.10;68.30;;;;;;2070168;28;20480;-59
2021/03/15 03:18:20;;;;;;;5.43;4.40;;;10.00;68.10;;;;;;2058904;28;20035;-59
2021/03/15 03:19:42;;;;;;;7.55;4.30;;;10.10;68.20;;;;;;2062395;28;20027;-59
2021/03/15 03:21:04;;;;;;;4.60;3.92;;;10.10;68.10;;;;;;2061608;28;20035;-60
2021/03/15 03:22:26;;;;;;;5.13;3.67;;;10.10;68.20;;;;;;2066133;28;20065;-59
2021/03/15 03:23:50;;;;;;;5.45;4.13;;;10.10;68.10;;;;;;2071577;28;20022;-60
2021/03/15 03:25:16;;;;;;;4.75;3.90;;;10.10;68.10;;;;;;2063294;28;20031;-59
2021/03/15 03:26:38;;;;;;;4.32;3.92;;;10.10;68.20;;;;;;2070666;28;20049;-59
2021/03/15 03:28:01;;;;;;;6.20;4.40;;;10.10;68.10;;;;;;2064311;28;20035;-59
2021/03/15 03:29:23;;;;;;;6.70;4.75;;;10.10;68.20;;;;;;2060116;28;20088;-59
2021/03/15 03:30:44;;;;;;;6.45;4.00;;;10.20;68.20;;;;;;2065102;28;20380;-59
2021/03/15 03:32:06;;;;;;;4.60;4.10;;;10.10;68.10;;;;;;2063698;28;20048;-59
2021/03/15 03:33:27;;;;;;;6.30;4.50;;;10.20;68.30;;;;;;2063836;28;20026;-59
2021/03/15 03:34:49;;;;;;;6.30;4.57;;;10.10;68.20;;;;;;2057700;28;20026;-59
2021/03/15 03:36:10;;;;;;;6.63;4.30;;;10.20;68.30;;;;;;2065555;28;20058;-59
2021/03/15 03:37:31;;;;;;;7.28;4.55;;;10.20;68.30;;;;;;2060017;28;20026;-59
2021/03/15 03:38:54;;;;;;;5.75;5.18;;;10.20;68.30;;;;;;2068151;28;20461;-59
2021/03/15 03:40:15;;;;;;;6.35;4.70;;;10.20;68.40;;;;;;2065433;28;20034;-59
2021/03/15 03:41:38;;;;;;;5.28;4.78;;;10.20;68.40;;;;;;2070554;28;20037;-60
2021/03/15 03:42:58;;;;;;;5.75;4.80;;;10.20;68.30;;;;;;2065291;28;20034;-59
2021/03/15 03:44:19;;;;;;;5.43;4.72;;;10.20;68.30;;;;;;2065036;28;20106;-59
2021/03/15 03:45:40;;;;;;;5.78;5.00;;;10.20;68.20;;;;;;2056195;28;20026;-59
2021/03/15 03:47:01;;;;;;;5.97;5.38;;;10.20;68.30;;;;;;2066995;28;20480;-59
2021/03/15 03:48:22;;;;;;;7.65;5.47;;;10.20;68.40;;;;;;2070689;28;20045;-59
2021/03/15 03:49:44;;;;;;;8.13;5.43;;;10.20;68.20;;;;;;2068595;28;20035;-59
2021/03/15 03:51:05;;;;;;;6.03;5.45;;;10.20;68.20;;;;;;2058412;28;20363;-59
2021/03/15 03:52:29;;;;;;;8.43;5.57;;;10.20;68.50;;;;;;2063540;28;20030;-59
2021/03/15 03:53:57;;;;;;;6.25;5.10;;;10.20;68.40;;;;;;2071345;28;20189;-59
2021/03/15 03:55:22;;;;;;;6.85;5.63;;;10.20;68.60;;;;;;2063098;28;20072;-59
2021/03/15 03:56:56;;;;;;;6.70;5.20;;;10.30;68.60;;;;;;2070991;28;20312;-59
2021/03/15 03:58:19;;;;;;;5.95;5.15;;;10.30;68.60;;;;;;2059108;28;20041;-59
2021/03/15 03:59:47;;;;;;;6.13;5.35;;;10.30;68.50;;;;;;2066223;28;20034;-59
2021/03/15 04:01:10;;;;;;;6.07;5.35;;;10.30;68.60;;;;;;2065144;28;20150;-59
2021/03/15 04:02:37;;;;;;;6.90;5.68;;;10.30;68.50;;;;;;2060048;28;20034;-59
2021/03/15 04:04:00;;;;;;;8.32;6.40;;;10.30;68.60;;;;;;2069297;28;20120;-59
2021/03/15 04:05:27;;;;;;;6.78;5.70;;;10.30;68.60;;;;;;2063424;28;20038;-60
2021/03/15 04:06:50;;;;;;;8.90;6.43;;;10.30;68.70;;;;;;2064948;28;20440;-59
2021/03/15 04:08:18;;;;;;;6.55;5.82;;;10.30;68.60;;;;;;2070227;28;20594;-59
2021/03/15 04:09:41;;;;;;;7.25;5.65;;;10.30;68.60;;;;;;2066348;28;20077;-59
2021/03/15 04:11:03;;;;;;;8.20;6.30;;;10.30;68.60;;;;;;2064996;28;20206;-59
2021/03/15 04:12:26;;;;;;;6.60;5.95;;;10.30;68.80;;;;;;2060058;28;20108;-59
2021/03/15 04:13:50;;;;;;;8.52;6.00;;;10.40;68.60;;;;;;2063483;28;20038;-59
2021/03/15 04:15:15;;;;;;;7.07;6.35;;;10.30;68.60;;;;;;2064911;28;20053;-59
2021/03/15 04:16:41;;;;;;;8.15;6.28;;;10.30;68.60;;;;;;2062279;28;20481;-59
2021/03/15 04:18:07;;;;;;;8.98;5.93;;;10.40;68.60;;;;;;2070644;28;20034;-59
2021/03/15 04:19:36;;;;;;;6.35;5.72;;;10.40;68.50;;;;;;2063053;28;20092;-59
2021/03/15 04:20:59;;;;;;;7.32;5.95;;;10.40;68.70;;;;;;2068213;28;20018;-59
2021/03/15 04:22:23;;;;;;;7.70;6.35;;;10.40;68.40;;;;;;2065432;28;20845;-59
2021/03/15 04:23:47;;;;;;;9.15;6.55;;;10.40;68.50;;;;;;2063354;28;20453;-59
2021/03/15 04:25:09;;;;;;;8.57;6.95;;;10.40;69.10;;;;;;2062864;28;20045;-59
2021/03/15 04:26:31;;;;;;;7.10;6.47;;;10.30;68.20;;;;;;2059800;28;20057;-60
2021/03/15 04:27:54;;;;;;;7.45;6.55;;;10.30;68.10;;;;;;2064590;28;20045;-59
2021/03/15 04:29:16;;;;;;;9.35;7.10;;;10.30;68.20;;;;;;2057200;28;20037;-60
2021/03/15 04:30:38;;;;;;;8.18;6.72;;;10.30;68.10;;;;;;2061920;28;20041;-59
2021/03/15 04:32:01;;;;;;;7.60;6.70;;;10.30;68.20;;;;;;2066213;28;20104;-59
2021/03/15 04:33:24;;;;;;;8.82;7.35;;;10.30;68.30;;;;;;2059900;28;20050;-59
2021/03/15 04:34:45;;;;;;;8.82;6.38;;;10.30;68.30;;;;;;2066708;28;20027;-59
2021/03/15 04:36:07;;;;;;;9.05;7.05;;;10.30;68.20;;;;;;2063261;28;20093;-59
2021/03/15 04:37:29;;;;;;;7.38;6.63;;;10.30;68.10;;;;;;2059793;28;20117;-60
2021/03/15 04:38:51;;;;;;;9.38;6.63;;;10.30;68.10;;;;;;2067621;28;20080;-59
2021/03/15 04:40:14;;;;;;;8.80;7.25;;;10.30;68.20;;;;;;2063518;28;20034;-59
2021/03/15 04:41:36;;;;;;;8.95;6.78;;;10.30;68.10;;;;;;2056476;28;20113;-59
2021/03/15 04:43:00;;;;;;;8.18;7.15;;;10.30;67.90;;;;;;2067311;28;20033;-59
2021/03/15 04:44:21;;;;;;;9.27;7.03;;;10.30;67.90;;;;;;2060426;28;20090;-59
2021/03/15 04:45:43;;;;;;;7.65;6.93;;;10.30;67.80;;;;;;2066459;28;20034;-59
2021/03/15 04:47:06;;;;;;;7.45;6.07;;;10.30;67.90;;;;;;2065220;28;20081;-59
2021/03/15 04:48:29;;;;;;;6.60;5.68;;;10.20;67.60;;;;;;2064672;28;20026;-59
2021/03/15 04:49:51;;;;;;;6.95;5.70;;;10.20;67.50;;;;;;2057139;28;20114;-59
2021/03/15 04:51:18;;;;;;;6.28;5.68;;;10.20;67.50;;;;;;2055138;28;20038;-58
2021/03/15 04:52:40;;;;;;;6.72;5.63;;;10.20;67.40;;;;;;2065217;28;20037;-59
2021/03/15 04:54:02;;;;;;;6.13;5.22;;;10.20;67.30;;;;;;2066043;28;20038;-58
2021/03/15 04:55:25;;;;;;;7.03;5.65;;;10.10;67.20;;;;;;2059828;28;20034;-59
2021/03/15 04:56:50;;;;;;;6.10;5.50;;;10.10;67.10;;;;;;2070514;28;20030;-59
2021/03/15 04:58:14;;;;;;;7.53;5.53;;;10.10;67.10;;;;;;2063904;28;20096;-59
2021/03/15 04:59:37;;;;;;;5.22;4.72;;;10.10;67.10;;;;;;2061589;28;20037;-58
2021/03/15 05:01:01;;;;;;;5.10;4.63;;;10.10;67.00;;;;;;2062530;28;20045;-59
2021/03/15 05:02:24;;;;;;;5.38;4.60;;;10.10;67.00;;;;;;2059580;28;20035;-59
2021/03/15 05:03:49;;;;;;;5.13;4.60;;;10.10;67.00;;;;;;2068485;28;20412;-59
2021/03/15 05:05:14;;;;;;;5.28;4.78;;;10.00;67.10;;;;;;2063501;28;20057;-59
2021/03/15 05:06:37;;;;;;;5.07;4.63;;;10.00;67.10;;;;;;2063130;28;20030;-59
2021/03/15 05:08:01;;;;;;;5.03;4.53;;;10.00;67.20;;;;;;2063548;28;20038;-59
2021/03/15 05:09:22;;;;;;;7.22;5.13;;;10.00;67.20;;;;;;2058346;28;20035;-59
2021/03/15 05:10:45;;;;;;;5.30;4.80;;;10.00;67.20;;;;;;2064760;28;20517;-59
2021/03/15 05:12:06;;;;;;;5.90;5.30;;;10.00;67.20;;;;;;2069734;28;20121;-59
2021/03/15 05:13:33;;;;;;;6.15;5.18;;;10.00;67.40;;;;;;2059853;28;20040;-59
2021/03/15 05:14:56;;;;;;;5.43;4.93;;;10.00;67.50;;;;;;2060951;28;20117;-59
2021/03/15 05:16:17;;;;;;;6.20;5.60;;;9.90;67.40;;;;;;2064133;28;20048;-59
2021/03/15 05:17:40;;;;;;;5.40;4.90;;;9.90;67.50;;;;;;2060701;28;20441;-59
2021/03/15 05:19:03;;;;;;;6.50;5.10;;;9.90;67.40;;;;;;2062856;28;20081;-59
2021/03/15 05:20:25;;;;;;;5.35;4.72;;;9.90;67.50;;;;;;2062158;28;20764;-59
2021/03/15 05:21:48;;;;;;;7.47;4.97;;;9.90;67.70;;;;;;2062641;28;20038;-59
2021/03/15 05:23:11;;;;;;;5.32;4.82;;;9.90;67.80;;;;;;2062944;28;20066;-60
2021/03/15 05:24:32;;;;;;;5.53;4.93;;;9.90;67.80;;;;;;2063560;28;20022;-59
2021/03/15 05:25:55;;;;;;;6.78;5.40;;;9.90;67.80;;;;;;2061602;28;20681;-59
2021/03/15 05:27:17;;;;;;;6.30;5.15;;;9.90;67.70;;;;;;2057544;28;20041;-59
2021/03/15 05:28:40;;;;;;;6.72;5.40;;;9.90;67.70;;;;;;2051890;28;20070;-59
2021/03/15 05:30:07;;;;;;;5.70;5.20;;;9.90;67.90;;;;;;2060501;28;20088;-60
2021/03/15 05:31:29;;;;;;;5.85;5.25;;;9.90;67.90;;;;;;2058210;28;20034;-59
2021/03/15 05:32:52;;;;;;;5.35;4.82;;;9.90;67.80;;;;;;2063153;28;20070;-59
2021/03/15 05:34:14;;;;;;;5.97;5.25;;;9.90;67.80;;;;;;2056931;28;20031;-60
2021/03/15 05:35:36;;;;;;;6.28;5.53;;;9.90;67.80;;;;;;2058872;28;20037;-59
2021/03/15 05:36:59;;;;;;;5.78;5.18;;;9.80;67.80;;;;;;2055604;28;20489;-59
2021/03/15 05:38:20;;;;;;;6.10;5.53;;;9.80;67.80;;;;;;2058304;28;20094;-59
2021/03/15 05:39:41;;;;;;;5.30;4.88;;;9.90;67.80;;;;;;2067444;28;20030;-59
2021/03/15 05:41:04;;;;;;;5.65;5.15;;;9.80;67.80;;;;;;2063295;28;20056;-60
2021/03/15 05:42:46;;;;;;;5.85;5.25;;;9.90;68.00;;;;;;2062569;28;20042;-59
2021/03/15 05:44:44;;;;;;;5.85;5.18;;;9.80;68.10;;;;;;2062243;28;20416;-59
2021/03/15 05:46:22;;;;;;;5.78;5.28;;;9.90;68.10;;;;;;2069041;28;20512;-59
2021/03/15 05:47:57;;;;;;;5.80;5.20;;;9.90;68.00;;;;;;2063858;28;20034;-60
2021/03/15 05:50:16;;;;;;;5.75;4.97;;;9.90;67.80;;;;;;2060387;28;20038;-59
2021/03/15 05:52:06;;;;;;;5.68;4.97;;;9.90;67.90;;;;;;2041755;29;20050;-60
2021/03/15 05:53:36;;;;;;;;;;;9.90;67.50;;;;;;2045405;28;20028;-59
2021/03/15 05:55:26;;;;;;;5.85;5.15;;;9.90;67.60;;;;;;2057462;28;19941;-60
2021/03/15 05:57:09;;;;;;;6.13;5.28;;;9.90;67.20;;;;;;2061758;28;20022;-59
2021/03/15 05:58:48;;;;;;;5.32;4.72;;;9.90;67.20;;;;;;2062397;28;20031;-59
2021/03/15 06:00:32;;;;;;;5.55;5.03;;;9.90;67.00;;;;;;2061804;28;20027;-61
2021/03/15 06:02:20;;;;;;;6.05;5.00;;;9.90;67.20;;;;;;2062303;28;20053;-59
2021/03/15 06:04:06;;;;;;;6.15;5.43;;;9.90;67.00;;;;;;2061404;28;20034;-58
2021/03/15 06:05:28;;;;;;;5.55;5.05;;;9.90;67.30;;;;;;2066482;28;20041;-58
2021/03/15 06:06:54;;;;;;;5.82;5.32;;;9.90;67.00;;;;;;2068053;28;20700;-58
2021/03/15 06:08:22;;;;;;;7.05;5.70;;;9.90;67.30;;;;;;2065644;28;20038;-58
2021/03/15 06:10:05;;;;;;;6.70;5.28;;;9.90;67.30;;;;;;2065725;28;20030;-59
2021/03/15 06:11:27;;;;;;;5.95;5.40;;;9.80;67.50;;;;;;2061369;28;20649;-59
2021/03/15 06:12:56;;;;;;;7.15;6.13;;;9.90;67.30;;;;;;2069726;28;20483;-58
2021/03/15 06:14:17;;;;;;;7.43;6.28;;;9.90;67.50;;;;;;2067967;28;20057;-59
2021/03/15 06:15:39;;;;;;;6.28;5.68;;;9.80;67.40;;;;;;2066186;28;20060;-59
2021/03/15 06:17:01;;;;;;;6.75;5.35;;;9.90;67.70;;;;;;2068263;28;20034;-59
2021/03/15 06:18:22;;;;;;;6.25;5.65;;;9.80;67.80;;;;;;2060303;28;20035;-58
2021/03/15 06:19:46;;;;;;;5.70;5.10;;;9.90;67.80;;;;;;2062388;28;20700;-59
2021/03/15 06:21:10;;;;;;;7.22;5.97;;;9.90;67.80;;;;;;2070111;28;20081;-59
2021/03/15 06:22:32;;;;;;;7.03;5.90;;;9.90;67.90;;;;;;2069139;28;20062;-58
2021/03/15 06:23:59;;;;;;;6.28;5.60;;;9.90;67.90;;;;;;2066518;28;20049;-59
2021/03/15 06:25:19;;;;;;;6.95;6.25;;;9.90;68.00;;;;;;2059162;28;20052;-58
2021/03/15 06:26:41;;;;;;;7.05;5.65;;;9.90;67.80;;;;;;2071021;28;20321;-58
2021/03/15 06:28:04;;;;;;;6.70;6.10;;;9.90;67.90;;;;;;2066051;28;20046;-61
2021/03/15 06:29:25;;;;;;;9.10;6.03;;;9.90;67.90;;;;;;2065736;28;20062;-59
2021/03/15 06:30:48;;;;;;;7.10;5.85;;;9.90;67.90;;;;;;2068121;28;20026;-60
2021/03/15 06:32:10;;;;;;;6.18;5.57;;;9.90;68.00;;;;;;2069897;28;20651;-59
2021/03/15 06:33:31;;;;;;;5.85;5.25;;;9.90;68.10;;;;;;2063222;28;20037;-60
2021/03/15 06:34:56;;;;;;;6.65;6.05;;;9.90;68.20;;;;;;2063331;28;20030;-59
2021/03/15 06:36:18;;;;;;;7.13;5.95;;;10.00;68.20;;;;;;2059486;28;20073;-60
2021/03/15 06:37:39;;;;;;;6.60;5.88;;;10.00;68.10;;;;;;2065240;28;20026;-60
2021/03/15 06:39:01;;;;;;;6.90;5.85;;;10.00;68.00;;;;;;2071024;28;20037;-60
2021/03/15 06:40:23;;;;;;;6.80;5.30;;;10.00;67.90;;;;;;2059064;28;20090;-60
2021/03/15 06:41:47;;;;;;;6.03;5.43;;;10.00;67.90;;;;;;2070006;28;20029;-59
2021/03/15 06:43:14;;;;;;;6.78;5.30;;;10.00;67.90;;;;;;2071189;28;20033;-60
2021/03/15 06:44:35;;;;;;;6.78;6.13;;;10.00;68.00;;;;;;2063388;28;20019;-60
2021/03/15 06:45:56;;;;;;;9.75;5.63;;;10.00;68.50;;;;;;2068988;28;20022;-60
2021/03/15 06:47:17;;;;;;;7.88;5.53;;;10.00;67.80;;;;;;2069430;28;20058;-60
2021/03/15 06:48:38;;;;;;;7.20;5.03;;;10.00;67.70;;;;;;2064362;28;20041;-60
2021/03/15 06:50:00;;;;;;;7.95;5.95;;;10.00;67.70;;;;;;2062462;28;20133;-59
2021/03/15 06:51:21;;;;;;;6.43;5.22;;;10.00;67.70;;;;;;2065051;28;20361;-60
2021/03/15 06:52:58;;;;;;;6.82;5.75;;;10.00;67.60;;;;;;2065163;28;20030;-60
2021/03/15 06:54:25;;;;;;;7.32;5.43;;;10.00;67.80;;;;;;2060594;28;20397;-60
2021/03/15 06:55:51;;;;;;;7.03;5.25;;;10.10;67.70;;;;;;2070024;28;20029;-59
2021/03/15 06:57:18;;;;;;;8.13;5.80;;;10.10;67.60;;;;;;2059223;28;20039;-60
2021/03/15 06:58:47;;;;;;;8.38;5.75;;;10.00;67.40;;;;;;2063102;28;20034;-60
2021/03/15 07:00:09;;;;;;;6.30;5.18;;;10.00;67.50;;;;;;2060216;28;20023;-60
2021/03/15 07:01:30;;;;;;;7.22;5.80;;;10.00;67.30;;;;;;2061716;28;20085;-59
2021/03/15 07:03:01;;;;;;;6.13;5.38;;;10.10;67.40;;;;;;2065249;28;20038;-60
2021/03/15 07:04:25;;;;;;;5.60;5.00;;;10.00;67.40;;;;;;2065231;28;20209;-59
2021/03/15 07:05:57;;;;;;;7.45;5.43;;;10.00;67.40;;;;;;2062014;28;20042;-60
2021/03/15 07:07:26;;;;;;;8.00;5.57;;;10.00;67.50;;;;;;2064421;28;20033;-60
2021/03/15 07:08:48;;;;;;;7.30;5.22;;;10.00;67.50;;;;;;2062134;28;20184;-60
2021/03/15 07:10:20;;;;;;;8.95;6.32;;;10.00;67.60;;;;;;2065640;28;20050;-60
2021/03/15 07:11:41;;;;;;;9.25;5.68;;;10.00;68.00;;;;;;2065688;28;20033;-60
2021/03/15 07:13:11;;;;;;;8.50;5.97;;;10.10;68.00;;;;;;2064122;28;20034;-60
2021/03/15 07:14:32;;;;;;;7.13;5.93;;;10.10;68.00;;;;;;2062212;28;20027;-60
2021/03/15 07:15:55;;;;;;;7.28;5.80;;;10.10;68.00;;;;;;2064949;28;20557;-59
2021/03/15 07:17:24;;;;;;;7.38;6.30;;;10.10;68.10;;;;;;2064024;28;20077;-60
2021/03/15 07:18:45;;;;;;;7.20;6.10;;;10.10;68.20;;;;;;2069361;28;20022;-59
2021/03/15 07:20:08;;;;;;;8.35;5.65;;;10.10;68.10;;;;;;2061137;28;20053;-59
2021/03/15 07:21:30;;;;;;;7.63;6.13;;;10.20;68.10;;;;;;2063977;28;20488;-60
2021/03/15 07:22:51;;;;;;;6.45;5.47;;;10.20;68.10;;;;;;2064196;28;20100;-60